sensor_id;sensor_type;location;lat;lon;timestamp;temperature;humidity
7814;DHT22;3952;48.364;16.022;2023-04-03T00:02:02;5.70;99.90
7814;DHT22;3952;48.364;16.022;2023-04-03T00:04:29;5.60;99.90
7814;DHT22;3952;48.364;16.022;2023-04-03T00:06:57;5.60;99.90
7814;DHT22;3952;48.364;16.022;2023-04-03T00:09:25;5.60;99.90
7814;DHT22;3952;48.364;16.022;2023-04-03T00:11:52;5.60;99.90
7814;DHT22;3952;48.364;16.022;2023-04-03T00:14:19;5.60;99.90
7814;DHT22;3952;48.364;16.022;2023-04-03T00:16:47;5.60;99.90
7814;DHT22;3952;48.364;16.022;2023-04-03T00:19:14;5.60;99.90
7814;DHT22;3952;48.364;16.022;2023-04-03T00:21:41;5.70;99.90
7814;DHT22;3952;48.364;16.022;2023-04-03T00:24:10;5.60;99.90
7814;DHT22;3952;48.364;16.022;2023-04-03T00:26:37;5.70;99.90
7814;DHT22;3952;48.364;16.022;2023-04-03T00:29:04;5.70;99.90
7814;DHT22;3952;48.364;16.022;2023-04-03T00:31:31;5.70;99.90
7814;DHT22;3952;48.364;16.022;2023-04-03T00:33:58;5.70;99.90
7814;DHT22;3952;48.364;16.022;2023-04-03T00:36:26;5.70;99.90
7814;DHT22;3952;48.364;16.022;2023-04-03T00:38:53;5.70;99.90
7814;DHT22;3952;48.364;16.022;2023-04-03T00:41:22;5.70;99.90
7814;DHT22;3952;48.364;16.022;2023-04-03T00:43:49;5.70;99.90
7814;DHT22;3952;48.364;16.022;2023-04-03T00:46:16;5.70;99.90
7814;DHT22;3952;48.364;16.022;2023-04-03T00:48:45;5.70;99.90
7814;DHT22;3952;48.364;16.022;2023-04-03T00:51:14;5.70;99.90
7814;DHT22;3952;48.364;16.022;2023-04-03T00:53:46;5.70;99.90
7814;DHT22;3952;48.364;16.022;2023-04-03T00:56:16;5.70;99.90
7814;DHT22;3952;48.364;16.022;2023-04-03T00:58:50;5.70;99.90
7814;DHT22;3952;48.364;16.022;2023-04-03T01:01:21;5.60;99.90
7814;DHT22;3952;48.364;16.022;2023-04-03T01:03:50;5.60;99.90
7814;DHT22;3952;48.364;16.022;2023-04-03T01:06:21;5.60;99.90
7814;DHT22;3952;48.364;16.022;2023-04-03T01:08:50;5.60;99.90
7814;DHT22;3952;48.364;16.022;2023-04-03T01:11:18;5.60;99.90
7814;DHT22;3952;48.364;16.022;2023-04-03T01:13:48;5.60;99.90
7814;DHT22;3952;48.364;16.022;2023-04-03T01:16:15;5.60;99.90
7814;DHT22;3952;48.364;16.022;2023-04-03T01:18:44;5.60;99.90
7814;DHT22;3952;48.364;16.022;2023-04-03T01:21:44;5.60;99.90
7814;DHT22;3952;48.364;16.022;2023-04-03T01:24:32;5.60;99.90
7814;DHT22;3952;48.364;16.022;2023-04-03T01:27:01;5.50;99.90
7814;DHT22;3952;48.364;16.022;2023-04-03T01:29:31;5.50;99.90
7814;DHT22;3952;48.364;16.022;2023-04-03T01:32:01;5.50;99.90
7814;DHT22;3952;48.364;16.022;2023-04-03T01:34:29;5.50;99.90
7814;DHT22;3952;48.364;16.022;2023-04-03T01:36:56;5.50;99.90
7814;DHT22;3952;48.364;16.022;2023-04-03T01:39:24;5.60;99.90
7814;DHT22;3952;48.364;16.022;2023-04-03T01:41:51;5.50;99.90
7814;DHT22;3952;48.364;16.022;2023-04-03T01:44:18;5.50;99.90
7814;DHT22;3952;48.364;16.022;2023-04-03T01:46:45;5.50;99.90
7814;DHT22;3952;48.364;16.022;2023-04-03T01:49:14;5.50;99.90
7814;DHT22;3952;48.364;16.022;2023-04-03T01:51:41;5.50;99.90
7814;DHT22;3952;48.364;16.022;2023-04-03T01:54:09;5.60;99.90
7814;DHT22;3952;48.364;16.022;2023-04-03T01:56:36;5.60;99.90
7814;DHT22;3952;48.364;16.022;2023-04-03T01:59:04;5.50;99.90
7814;DHT22;3952;48.364;16.022;2023-04-03T02:01:31;5.50;99.90
7814;DHT22;3952;48.364;16.022;2023-04-03T02:03:59;5.50;99.90
7814;DHT22;3952;48.364;16.022;2023-04-03T02:06:27;5.50;99.90
7814;DHT22;3952;48.364;16.022;2023-04-03T02:08:54;5.60;99.90
7814;DHT22;3952;48.364;16.022;2023-04-03T02:11:22;5.50;99.90
7814;DHT22;3952;48.364;16.022;2023-04-03T02:13:49;5.60;99.90
7814;DHT22;3952;48.364;16.022;2023-04-03T02:16:16;5.60;99.90
7814;DHT22;3952;48.364;16.022;2023-04-03T02:18:43;5.60;99.90
7814;DHT22;3952;48.364;16.022;2023-04-03T02:21:10;5.60;99.90
7814;DHT22;3952;48.364;16.022;2023-04-03T02:23:39;5.60;99.90
7814;DHT22;3952;48.364;16.022;2023-04-03T02:26:08;5.50;99.90
7814;DHT22;3952;48.364;16.022;2023-04-03T02:28:35;5.50;99.90
7814;DHT22;3952;48.364;16.022;2023-04-03T02:31:03;5.50;99.90
7814;DHT22;3952;48.364;16.022;2023-04-03T02:33:32;5.50;99.90
7814;DHT22;3952;48.364;16.022;2023-04-03T02:35:59;5.50;99.90
7814;DHT22;3952;48.364;16.022;2023-04-03T02:38:26;5.50;99.90
7814;DHT22;3952;48.364;16.022;2023-04-03T02:41:00;5.50;99.90
7814;DHT22;3952;48.364;16.022;2023-04-03T02:43:27;5.50;99.90
7814;DHT22;3952;48.364;16.022;2023-04-03T02:45:54;5.50;99.90
7814;DHT22;3952;48.364;16.022;2023-04-03T02:48:21;5.50;99.90
7814;DHT22;3952;48.364;16.022;2023-04-03T02:50:49;5.50;99.90
7814;DHT22;3952;48.364;16.022;2023-04-03T02:53:17;5.50;99.90
7814;DHT22;3952;48.364;16.022;2023-04-03T02:55:45;5.50;99.90
7814;DHT22;3952;48.364;16.022;2023-04-03T02:58:14;5.60;99.90
7814;DHT22;3952;48.364;16.022;2023-04-03T03:00:41;5.50;99.90
7814;DHT22;3952;48.364;16.022;2023-04-03T03:03:08;5.50;99.90
7814;DHT22;3952;48.364;16.022;2023-04-03T03:05:35;5.50;99.90
7814;DHT22;3952;48.364;16.022;2023-04-03T03:08:05;5.50;99.90
7814;DHT22;3952;48.364;16.022;2023-04-03T03:10:33;5.50;99.90
7814;DHT22;3952;48.364;16.022;2023-04-03T03:13:01;5.50;99.90
7814;DHT22;3952;48.364;16.022;2023-04-03T03:15:29;5.50;99.90
7814;DHT22;3952;48.364;16.022;2023-04-03T03:17:56;5.50;99.90
7814;DHT22;3952;48.364;16.022;2023-04-03T03:20:24;5.50;99.90
7814;DHT22;3952;48.364;16.022;2023-04-03T03:22:51;5.50;99.90
7814;DHT22;3952;48.364;16.022;2023-04-03T03:25:18;5.50;99.90
7814;DHT22;3952;48.364;16.022;2023-04-03T03:27:45;6.10;99.90
7814;DHT22;3952;48.364;16.022;2023-04-03T03:30:12;5.50;99.90
7814;DHT22;3952;48.364;16.022;2023-04-03T03:32:41;5.50;99.90
7814;DHT22;3952;48.364;16.022;2023-04-03T03:35:09;5.50;99.90
7814;DHT22;3952;48.364;16.022;2023-04-03T03:37:36;5.50;99.90
7814;DHT22;3952;48.364;16.022;2023-04-03T03:40:04;5.50;99.90
7814;DHT22;3952;48.364;16.022;2023-04-03T03:42:31;5.40;99.90
7814;DHT22;3952;48.364;16.022;2023-04-03T03:44:58;5.40;99.90
7814;DHT22;3952;48.364;16.022;2023-04-03T03:47:25;5.40;99.90
7814;DHT22;3952;48.364;16.022;2023-04-03T03:49:54;5.40;99.90
7814;DHT22;3952;48.364;16.022;2023-04-03T03:52:21;5.40;99.90
7814;DHT22;3952;48.364;16.022;2023-04-03T03:54:48;5.40;99.90
7814;DHT22;3952;48.364;16.022;2023-04-03T03:57:15;6.80;99.90
7814;DHT22;3952;48.364;16.022;2023-04-03T03:59:43;5.30;99.90
7814;DHT22;3952;48.364;16.022;2023-04-03T04:02:10;5.30;99.90
7814;DHT22;3952;48.364;16.022;2023-04-03T04:04:37;5.30;99.90
7814;DHT22;3952;48.364;16.022;2023-04-03T04:07:06;5.30;99.90
7814;DHT22;3952;48.364;16.022;2023-04-03T04:09:33;5.30;99.90
7814;DHT22;3952;48.364;16.022;2023-04-03T04:12:00;5.30;99.90
7814;DHT22;3952;48.364;16.022;2023-04-03T04:14:27;5.30;99.90
7814;DHT22;3952;48.364;16.022;2023-04-03T04:16:55;5.30;99.90
7814;DHT22;3952;48.364;16.022;2023-04-03T04:19:22;5.30;99.90
7814;DHT22;3952;48.364;16.022;2023-04-03T04:21:49;5.30;99.90
7814;DHT22;3952;48.364;16.022;2023-04-03T04:24:18;5.30;99.90
7814;DHT22;3952;48.364;16.022;2023-04-03T04:26:45;5.30;99.90
7814;DHT22;3952;48.364;16.022;2023-04-03T04:29:12;5.30;99.90
7814;DHT22;3952;48.364;16.022;2023-04-03T04:31:39;5.30;99.90
7814;DHT22;3952;48.364;16.022;2023-04-03T04:34:07;5.20;99.90
7814;DHT22;3952;48.364;16.022;2023-04-03T04:36:34;5.20;99.90
7814;DHT22;3952;48.364;16.022;2023-04-03T04:39:01;5.20;99.90
7814;DHT22;3952;48.364;16.022;2023-04-03T04:41:29;5.20;99.90
7814;DHT22;3952;48.364;16.022;2023-04-03T04:43:57;5.20;99.90
7814;DHT22;3952;48.364;16.022;2023-04-03T04:46:24;5.20;99.90
7814;DHT22;3952;48.364;16.022;2023-04-03T04:48:51;5.20;99.90
7814;DHT22;3952;48.364;16.022;2023-04-03T04:51:18;5.10;99.90
7814;DHT22;3952;48.364;16.022;2023-04-03T04:53:46;5.20;99.90
7814;DHT22;3952;48.364;16.022;2023-04-03T04:56:13;5.10;99.90
7814;DHT22;3952;48.364;16.022;2023-04-03T04:58:41;5.10;99.90
7814;DHT22;3952;48.364;16.022;2023-04-03T05:01:10;5.10;99.90
7814;DHT22;3952;48.364;16.022;2023-04-03T05:03:37;5.20;99.90
7814;DHT22;3952;48.364;16.022;2023-04-03T05:06:04;5.20;99.90
7814;DHT22;3952;48.364;16.022;2023-04-03T05:08:32;5.10;99.90
7814;DHT22;3952;48.364;16.022;2023-04-03T05:10:59;5.10;99.90
7814;DHT22;3952;48.364;16.022;2023-04-03T05:13:27;5.10;99.90
7814;DHT22;3952;48.364;16.022;2023-04-03T05:15:56;5.10;99.90
7814;DHT22;3952;48.364;16.022;2023-04-03T05:18:24;5.00;99.90
7814;DHT22;3952;48.364;16.022;2023-04-03T05:20:51;5.00;99.90
7814;DHT22;3952;48.364;16.022;2023-04-03T05:23:18;5.00;99.90
7814;DHT22;3952;48.364;16.022;2023-04-03T05:25:45;5.00;99.90
7814;DHT22;3952;48.364;16.022;2023-04-03T05:28:14;5.00;99.90
7814;DHT22;3952;48.364;16.022;2023-04-03T05:30:41;5.00;99.90
7814;DHT22;3952;48.364;16.022;2023-04-03T05:33:10;5.00;99.90
7814;DHT22;3952;48.364;16.022;2023-04-03T05:35:37;5.10;99.90
7814;DHT22;3952;48.364;16.022;2023-04-03T05:38:07;5.10;99.90
7814;DHT22;3952;48.364;16.022;2023-04-03T05:40:34;5.10;99.90
7814;DHT22;3952;48.364;16.022;2023-04-03T05:43:01;6.00;99.90
7814;DHT22;3952;48.364;16.022;2023-04-03T05:45:29;5.00;99.90
7814;DHT22;3952;48.364;16.022;2023-04-03T05:47:57;5.00;99.90
7814;DHT22;3952;48.364;16.022;2023-04-03T05:50:25;5.00;99.90
7814;DHT22;3952;48.364;16.022;2023-04-03T05:52:57;5.00;99.90
7814;DHT22;3952;48.364;16.022;2023-04-03T05:55:24;5.00;99.90
7814;DHT22;3952;48.364;16.022;2023-04-03T05:57:52;5.00;99.90
7814;DHT22;3952;48.364;16.022;2023-04-03T06:00:19;5.00;99.90
7814;DHT22;3952;48.364;16.022;2023-04-03T06:02:46;5.00;99.90
7814;DHT22;3952;48.364;16.022;2023-04-03T06:05:14;5.00;99.90
7814;DHT22;3952;48.364;16.022;2023-04-03T06:07:42;5.00;99.90
7814;DHT22;3952;48.364;16.022;2023-04-03T06:10:11;5.00;99.90
7814;DHT22;3952;48.364;16.022;2023-04-03T06:12:38;5.10;99.90
7814;DHT22;3952;48.364;16.022;2023-04-03T06:15:07;5.10;99.90
7814;DHT22;3952;48.364;16.022;2023-04-03T06:17:35;5.20;99.90
7814;DHT22;3952;48.364;16.022;2023-04-03T06:20:03;5.20;99.90
7814;DHT22;3952;48.364;16.022;2023-04-03T06:22:31;5.20;99.90
7814;DHT22;3952;48.364;16.022;2023-04-03T06:24:59;5.30;99.90
7814;DHT22;3952;48.364;16.022;2023-04-03T06:27:27;5.30;99.90
7814;DHT22;3952;48.364;16.022;2023-04-03T06:29:54;5.30;99.90
7814;DHT22;3952;48.364;16.022;2023-04-03T06:32:21;5.30;99.90
7814;DHT22;3952;48.364;16.022;2023-04-03T06:34:49;5.40;99.90
7814;DHT22;3952;48.364;16.022;2023-04-03T06:37:18;5.40;99.90
7814;DHT22;3952;48.364;16.022;2023-04-03T06:39:46;5.40;99.90
7814;DHT22;3952;48.364;16.022;2023-04-03T06:42:15;5.40;99.90
7814;DHT22;3952;48.364;16.022;2023-04-03T06:44:42;5.40;99.90
7814;DHT22;3952;48.364;16.022;2023-04-03T06:47:10;5.40;99.90
7814;DHT22;3952;48.364;16.022;2023-04-03T06:49:38;5.30;99.90
7814;DHT22;3952;48.364;16.022;2023-04-03T06:52:05;5.30;99.90
7814;DHT22;3952;48.364;16.022;2023-04-03T06:54:33;5.30;99.90
7814;DHT22;3952;48.364;16.022;2023-04-03T06:57:00;5.30;99.90
7814;DHT22;3952;48.364;16.022;2023-04-03T06:59:29;5.30;99.90
7814;DHT22;3952;48.364;16.022;2023-04-03T07:01:56;5.20;99.90
7814;DHT22;3952;48.364;16.022;2023-04-03T07:04:24;5.20;99.90
7814;DHT22;3952;48.364;16.022;2023-04-03T07:06:52;5.20;99.90
7814;DHT22;3952;48.364;16.022;2023-04-03T07:09:19;5.20;99.90
7814;DHT22;3952;48.364;16.022;2023-04-03T07:11:47;5.20;99.90
7814;DHT22;3952;48.364;16.022;2023-04-03T07:14:14;5.20;99.90
7814;DHT22;3952;48.364;16.022;2023-04-03T07:16:42;5.20;99.90
7814;DHT22;3952;48.364;16.022;2023-04-03T07:19:10;5.20;99.90
7814;DHT22;3952;48.364;16.022;2023-04-03T07:21:37;5.20;99.90
7814;DHT22;3952;48.364;16.022;2023-04-03T07:24:05;5.30;99.90
7814;DHT22;3952;48.364;16.022;2023-04-03T07:26:32;5.30;99.90
7814;DHT22;3952;48.364;16.022;2023-04-03T07:28:59;5.30;99.90
7814;DHT22;3952;48.364;16.022;2023-04-03T07:31:26;5.30;99.90
7814;DHT22;3952;48.364;16.022;2023-04-03T07:33:55;5.30;99.90
7814;DHT22;3952;48.364;16.022;2023-04-03T07:36:23;5.40;99.90
7814;DHT22;3952;48.364;16.022;2023-04-03T07:38:50;5.50;99.90
7814;DHT22;3952;48.364;16.022;2023-04-03T07:41:19;5.50;99.90
7814;DHT22;3952;48.364;16.022;2023-04-03T07:43:48;5.60;99.90
7814;DHT22;3952;48.364;16.022;2023-04-03T07:46:16;5.70;99.90
7814;DHT22;3952;48.364;16.022;2023-04-03T07:48:44;5.80;99.90
7814;DHT22;3952;48.364;16.022;2023-04-03T07:51:13;5.90;99.90
7814;DHT22;3952;48.364;16.022;2023-04-03T07:53:40;6.00;99.90
7814;DHT22;3952;48.364;16.022;2023-04-03T07:56:08;7.70;99.90
7814;DHT22;3952;48.364;16.022;2023-04-03T07:58:35;6.00;99.90
7814;DHT22;3952;48.364;16.022;2023-04-03T08:01:03;6.10;99.90
7814;DHT22;3952;48.364;16.022;2023-04-03T08:03:30;6.20;99.90
7814;DHT22;3952;48.364;16.022;2023-04-03T08:06:02;6.20;99.90
7814;DHT22;3952;48.364;16.022;2023-04-03T08:08:31;6.30;99.90
7814;DHT22;3952;48.364;16.022;2023-04-03T08:11:00;6.30;99.90
7814;DHT22;3952;48.364;16.022;2023-04-03T08:13:31;6.40;99.90
7814;DHT22;3952;48.364;16.022;2023-04-03T08:16:06;6.50;99.90
7814;DHT22;3952;48.364;16.022;2023-04-03T08:18:33;6.50;99.90
7814;DHT22;3952;48.364;16.022;2023-04-03T08:21:01;6.60;99.90
7814;DHT22;3952;48.364;16.022;2023-04-03T08:23:33;6.50;99.90
7814;DHT22;3952;48.364;16.022;2023-04-03T08:26:06;6.50;99.90
7814;DHT22;3952;48.364;16.022;2023-04-03T08:28:33;6.60;99.90
7814;DHT22;3952;48.364;16.022;2023-04-03T08:31:03;6.60;99.90
7814;DHT22;3952;48.364;16.022;2023-04-03T08:33:31;6.60;99.90
7814;DHT22;3952;48.364;16.022;2023-04-03T08:35:59;6.50;99.90
7814;DHT22;3952;48.364;16.022;2023-04-03T08:38:26;6.50;99.90
7814;DHT22;3952;48.364;16.022;2023-04-03T08:41:04;6.50;99.90
7814;DHT22;3952;48.364;16.022;2023-04-03T08:43:38;6.70;99.90
7814;DHT22;3952;48.364;16.022;2023-04-03T08:46:14;6.80;99.90
7814;DHT22;3952;48.364;16.022;2023-04-03T08:48:42;6.90;99.90
7814;DHT22;3952;48.364;16.022;2023-04-03T08:51:13;6.90;99.90
7814;DHT22;3952;48.364;16.022;2023-04-03T08:53:45;7.10;99.90
7814;DHT22;3952;48.364;16.022;2023-04-03T08:56:16;7.30;99.90
7814;DHT22;3952;48.364;16.022;2023-04-03T08:58:49;7.30;99.90
7814;DHT22;3952;48.364;16.022;2023-04-03T09:01:20;7.10;99.90
7814;DHT22;3952;48.364;16.022;2023-04-03T09:03:48;7.00;99.90
7814;DHT22;3952;48.364;16.022;2023-04-03T09:06:18;6.90;99.90
7814;DHT22;3952;48.364;16.022;2023-04-03T09:08:53;6.70;99.90
7814;DHT22;3952;48.364;16.022;2023-04-03T09:11:37;6.60;99.90
7814;DHT22;3952;48.364;16.022;2023-04-03T09:14:15;6.40;99.90
7814;DHT22;3952;48.364;16.022;2023-04-03T09:16:49;6.30;99.90
7814;DHT22;3952;48.364;16.022;2023-04-03T09:19:23;6.20;99.90
7814;DHT22;3952;48.364;16.022;2023-04-03T09:21:56;6.30;99.90
7814;DHT22;3952;48.364;16.022;2023-04-03T09:24:24;6.30;99.90
7814;DHT22;3952;48.364;16.022;2023-04-03T09:26:56;6.30;99.90
7814;DHT22;3952;48.364;16.022;2023-04-03T09:29:26;6.30;99.90
7814;DHT22;3952;48.364;16.022;2023-04-03T09:31:56;6.30;99.90
7814;DHT22;3952;48.364;16.022;2023-04-03T09:34:28;6.30;99.90
7814;DHT22;3952;48.364;16.022;2023-04-03T09:36:57;6.50;99.90
7814;DHT22;3952;48.364;16.022;2023-04-03T09:39:27;6.60;99.90
7814;DHT22;3952;48.364;16.022;2023-04-03T09:42:01;6.60;99.90
7814;DHT22;3952;48.364;16.022;2023-04-03T09:44:31;6.50;99.90
7814;DHT22;3952;48.364;16.022;2023-04-03T09:46:59;6.40;99.90
7814;DHT22;3952;48.364;16.022;2023-04-03T09:49:26;6.40;99.90
7814;DHT22;3952;48.364;16.022;2023-04-03T09:51:53;6.40;99.90
7814;DHT22;3952;48.364;16.022;2023-04-03T09:54:32;6.70;99.90
7814;DHT22;3952;48.364;16.022;2023-04-03T09:57:06;7.00;99.90
7814;DHT22;3952;48.364;16.022;2023-04-03T09:59:33;7.00;99.90
7814;DHT22;3952;48.364;16.022;2023-04-03T10:02:04;6.90;99.90
7814;DHT22;3952;48.364;16.022;2023-04-03T10:04:43;6.90;99.90
7814;DHT22;3952;48.364;16.022;2023-04-03T10:07:32;6.90;99.90
7814;DHT22;3952;48.364;16.022;2023-04-03T10:10:03;7.20;99.90
7814;DHT22;3952;48.364;16.022;2023-04-03T10:12:32;7.50;99.90
7814;DHT22;3952;48.364;16.022;2023-04-03T10:15:00;7.40;99.90
7814;DHT22;3952;48.364;16.022;2023-04-03T10:17:48;7.30;99.90
7814;DHT22;3952;48.364;16.022;2023-04-03T10:20:27;7.20;99.90
7814;DHT22;3952;48.364;16.022;2023-04-03T10:23:05;6.90;99.90
7814;DHT22;3952;48.364;16.022;2023-04-03T10:25:40;6.90;99.90
7814;DHT22;3952;48.364;16.022;2023-04-03T10:28:13;6.80;99.90
7814;DHT22;3952;48.364;16.022;2023-04-03T10:30:50;6.80;99.90
7814;DHT22;3952;48.364;16.022;2023-04-03T10:33:34;6.90;99.90
7814;DHT22;3952;48.364;16.022;2023-04-03T10:36:11;7.00;99.90
7814;DHT22;3952;48.364;16.022;2023-04-03T10:38:46;6.90;99.90
7814;DHT22;3952;48.364;16.022;2023-04-03T10:41:19;6.70;99.90
7814;DHT22;3952;48.364;16.022;2023-04-03T10:43:57;6.50;99.90
7814;DHT22;3952;48.364;16.022;2023-04-03T10:46:30;6.50;99.90
7814;DHT22;3952;48.364;16.022;2023-04-03T10:49:11;6.60;99.90
7814;DHT22;3952;48.364;16.022;2023-04-03T10:51:43;6.60;99.90
7814;DHT22;3952;48.364;16.022;2023-04-03T10:54:13;6.60;99.90
7814;DHT22;3952;48.364;16.022;2023-04-03T10:56:47;6.60;99.90
7814;DHT22;3952;48.364;16.022;2023-04-03T10:59:24;6.70;99.90
7814;DHT22;3952;48.364;16.022;2023-04-03T11:01:55;6.60;99.90
7814;DHT22;3952;48.364;16.022;2023-04-03T11:04:25;6.50;99.90
7814;DHT22;3952;48.364;16.022;2023-04-03T11:06:57;6.50;99.90
7814;DHT22;3952;48.364;16.022;2023-04-03T11:09:30;6.60;99.90
7814;DHT22;3952;48.364;16.022;2023-04-03T11:12:04;6.70;99.90
7814;DHT22;3952;48.364;16.022;2023-04-03T11:14:36;6.90;99.90
7814;DHT22;3952;48.364;16.022;2023-04-03T11:17:11;7.00;99.90
7814;DHT22;3952;48.364;16.022;2023-04-03T11:19:45;6.90;99.90
7814;DHT22;3952;48.364;16.022;2023-04-03T11:22:19;6.80;99.90
7814;DHT22;3952;48.364;16.022;2023-04-03T11:24:56;6.80;99.90
7814;DHT22;3952;48.364;16.022;2023-04-03T11:27:24;6.60;99.90
7814;DHT22;3952;48.364;16.022;2023-04-03T11:29:54;6.60;99.90
7814;DHT22;3952;48.364;16.022;2023-04-03T11:32:48;6.60;99.40
7814;DHT22;3952;48.364;16.022;2023-04-03T11:35:20;6.50;99.50
7814;DHT22;3952;48.364;16.022;2023-04-03T11:37:49;6.50;99.80
7814;DHT22;3952;48.364;16.022;2023-04-03T11:40:22;6.50;99.90
7814;DHT22;3952;48.364;16.022;2023-04-03T11:42:54;6.60;99.90
7814;DHT22;3952;48.364;16.022;2023-04-03T11:45:31;6.60;99.70
7814;DHT22;3952;48.364;16.022;2023-04-03T11:48:01;6.50;99.90
7814;DHT22;3952;48.364;16.022;2023-04-03T11:50:47;6.50;99.90
7814;DHT22;3952;48.364;16.022;2023-04-03T11:53:29;6.40;99.90
7814;DHT22;3952;48.364;16.022;2023-04-03T11:56:03;6.40;99.90
7814;DHT22;3952;48.364;16.022;2023-04-03T11:58:32;6.30;99.10
7814;DHT22;3952;48.364;16.022;2023-04-03T12:01:06;6.20;98.60
7814;DHT22;3952;48.364;16.022;2023-04-03T12:04:05;6.10;99.10
7814;DHT22;3952;48.364;16.022;2023-04-03T12:09:57;6.20;99.40
7814;DHT22;3952;48.364;16.022;2023-04-03T12:12:31;6.40;99.90
7814;DHT22;3952;48.364;16.022;2023-04-03T12:15:19;6.50;97.70
7814;DHT22;3952;48.364;16.022;2023-04-03T12:17:48;6.40;97.60
7814;DHT22;3952;48.364;16.022;2023-04-03T12:20:55;6.40;97.60
7814;DHT22;3952;48.364;16.022;2023-04-03T12:23:28;4.80;97.20
7814;DHT22;3952;48.364;16.022;2023-04-03T12:26:03;6.40;99.00
7814;DHT22;3952;48.364;16.022;2023-04-03T12:28:37;6.40;99.90
7814;DHT22;3952;48.364;16.022;2023-04-03T12:31:08;6.40;99.90
7814;DHT22;3952;48.364;16.022;2023-04-03T12:33:51;6.40;99.90
7814;DHT22;3952;48.364;16.022;2023-04-03T12:36:32;6.30;99.90
7814;DHT22;3952;48.364;16.022;2023-04-03T12:42:34;6.20;97.20
7814;DHT22;3952;48.364;16.022;2023-04-03T12:45:14;6.20;97.90
7814;DHT22;3952;48.364;16.022;2023-04-03T12:47:44;6.20;96.80
7814;DHT22;3952;48.364;16.022;2023-04-03T12:50:24;6.20;95.60
7814;DHT22;3952;48.364;16.022;2023-04-03T12:52:56;6.30;96.30
7814;DHT22;3952;48.364;16.022;2023-04-03T12:55:25;6.40;96.80
7814;DHT22;3952;48.364;16.022;2023-04-03T12:57:52;6.40;96.10
7814;DHT22;3952;48.364;16.022;2023-04-03T13:00:31;6.30;95.80
7814;DHT22;3952;48.364;16.022;2023-04-03T13:03:01;6.20;95.20
7814;DHT22;3952;48.364;16.022;2023-04-03T13:05:30;8.20;96.10
7814;DHT22;3952;48.364;16.022;2023-04-03T13:08:00;6.20;95.20
7814;DHT22;3952;48.364;16.022;2023-04-03T13:10:29;6.20;95.00
7814;DHT22;3952;48.364;16.022;2023-04-03T13:12:58;6.20;95.10
7814;DHT22;3952;48.364;16.022;2023-04-03T13:15:28;6.30;96.30
7814;DHT22;3952;48.364;16.022;2023-04-03T13:17:56;6.40;96.00
7814;DHT22;3952;48.364;16.022;2023-04-03T13:20:26;6.40;95.10
7814;DHT22;3952;48.364;16.022;2023-04-03T13:22:57;6.40;95.60
7814;DHT22;3952;48.364;16.022;2023-04-03T13:25:28;6.50;96.90
7814;DHT22;3952;48.364;16.022;2023-04-03T13:27:58;6.60;94.50
7814;DHT22;3952;48.364;16.022;2023-04-03T13:30:28;6.60;94.60
7814;DHT22;3952;48.364;16.022;2023-04-03T13:32:58;5.90;94.90
7814;DHT22;3952;48.364;16.022;2023-04-03T13:35:32;6.70;95.20
7814;DHT22;3952;48.364;16.022;2023-04-03T13:38:04;6.70;95.00
7814;DHT22;3952;48.364;16.022;2023-04-03T13:40:33;6.60;94.10
7814;DHT22;3952;48.364;16.022;2023-04-03T13:43:06;6.60;95.70
7814;DHT22;3952;48.364;16.022;2023-04-03T13:45:58;6.60;95.10
7814;DHT22;3952;48.364;16.022;2023-04-03T13:48:26;6.70;93.80
7814;DHT22;3952;48.364;16.022;2023-04-03T13:50:57;6.70;94.30
7814;DHT22;3952;48.364;16.022;2023-04-03T13:53:26;6.70;93.20
7814;DHT22;3952;48.364;16.022;2023-04-03T13:55:58;6.60;93.80
7814;DHT22;3952;48.364;16.022;2023-04-03T13:58:27;6.50;93.90
7814;DHT22;3952;48.364;16.022;2023-04-03T14:00:59;6.50;95.80
7814;DHT22;3952;48.364;16.022;2023-04-03T14:03:40;6.50;96.20
7814;DHT22;3952;48.364;16.022;2023-04-03T14:06:11;6.50;94.30
7814;DHT22;3952;48.364;16.022;2023-04-03T14:08:39;6.40;95.80
7814;DHT22;3952;48.364;16.022;2023-04-03T14:11:13;6.50;96.30
7814;DHT22;3952;48.364;16.022;2023-04-03T14:13:42;6.50;95.90
7814;DHT22;3952;48.364;16.022;2023-04-03T14:16:13;6.60;95.50
7814;DHT22;3952;48.364;16.022;2023-04-03T14:18:43;6.50;94.90
7814;DHT22;3952;48.364;16.022;2023-04-03T14:21:11;6.60;96.10
7814;DHT22;3952;48.364;16.022;2023-04-03T14:23:40;6.80;95.80
7814;DHT22;3952;48.364;16.022;2023-04-03T14:26:12;6.80;96.70
7814;DHT22;3952;48.364;16.022;2023-04-03T14:28:39;6.70;95.40
7814;DHT22;3952;48.364;16.022;2023-04-03T14:31:07;6.60;95.30
7814;DHT22;3952;48.364;16.022;2023-04-03T14:33:34;6.60;95.10
7814;DHT22;3952;48.364;16.022;2023-04-03T14:36:10;6.50;95.30
7814;DHT22;3952;48.364;16.022;2023-04-03T14:38:39;6.50;95.80
7814;DHT22;3952;48.364;16.022;2023-04-03T14:41:07;6.50;95.40
7814;DHT22;3952;48.364;16.022;2023-04-03T14:43:35;6.50;96.30
7814;DHT22;3952;48.364;16.022;2023-04-03T14:46:02;6.40;95.80
7814;DHT22;3952;48.364;16.022;2023-04-03T14:48:29;6.40;95.80
7814;DHT22;3952;48.364;16.022;2023-04-03T14:50:57;6.40;95.30
7814;DHT22;3952;48.364;16.022;2023-04-03T14:53:24;6.40;95.10
7814;DHT22;3952;48.364;16.022;2023-04-03T14:55:53;6.40;94.90
7814;DHT22;3952;48.364;16.022;2023-04-03T14:58:20;6.30;94.50
7814;DHT22;3952;48.364;16.022;2023-04-03T15:00:48;6.30;95.30
7814;DHT22;3952;48.364;16.022;2023-04-03T15:03:16;6.20;94.10
7814;DHT22;3952;48.364;16.022;2023-04-03T15:05:46;6.20;93.40
7814;DHT22;3952;48.364;16.022;2023-04-03T15:08:18;6.10;94.00
7814;DHT22;3952;48.364;16.022;2023-04-03T15:10:46;6.10;93.60
7814;DHT22;3952;48.364;16.022;2023-04-03T15:13:15;6.00;92.70
7814;DHT22;3952;48.364;16.022;2023-04-03T15:15:43;6.10;94.70
7814;DHT22;3952;48.364;16.022;2023-04-03T15:18:15;6.10;93.60
7814;DHT22;3952;48.364;16.022;2023-04-03T15:20:43;6.20;93.20
7814;DHT22;3952;48.364;16.022;2023-04-03T15:23:12;6.30;92.80
7814;DHT22;3952;48.364;16.022;2023-04-03T15:25:42;6.20;93.50
7814;DHT22;3952;48.364;16.022;2023-04-03T15:28:17;6.20;93.20
7814;DHT22;3952;48.364;16.022;2023-04-03T15:30:45;6.10;93.60
7814;DHT22;3952;48.364;16.022;2023-04-03T15:33:13;6.20;92.40
7814;DHT22;3952;48.364;16.022;2023-04-03T15:35:41;6.20;92.90
7814;DHT22;3952;48.364;16.022;2023-04-03T15:38:08;6.20;93.70
7814;DHT22;3952;48.364;16.022;2023-04-03T15:40:36;6.10;94.00
7814;DHT22;3952;48.364;16.022;2023-04-03T15:43:04;6.20;95.00
7814;DHT22;3952;48.364;16.022;2023-04-03T15:45:34;4.70;95.00
7814;DHT22;3952;48.364;16.022;2023-04-03T15:48:02;6.00;93.80
7814;DHT22;3952;48.364;16.022;2023-04-03T15:50:30;6.00;93.40
7814;DHT22;3952;48.364;16.022;2023-04-03T15:52:58;5.90;93.40
7814;DHT22;3952;48.364;16.022;2023-04-03T15:55:28;5.90;93.10
7814;DHT22;3952;48.364;16.022;2023-04-03T15:57:55;5.90;93.00
7814;DHT22;3952;48.364;16.022;2023-04-03T16:00:23;5.90;93.60
7814;DHT22;3952;48.364;16.022;2023-04-03T16:02:54;5.90;93.50
7814;DHT22;3952;48.364;16.022;2023-04-03T16:05:23;5.80;93.20
7814;DHT22;3952;48.364;16.022;2023-04-03T16:07:51;5.80;93.30
7814;DHT22;3952;48.364;16.022;2023-04-03T16:10:19;5.70;94.00
7814;DHT22;3952;48.364;16.022;2023-04-03T16:12:47;5.70;94.50
7814;DHT22;3952;48.364;16.022;2023-04-03T16:15:14;5.70;94.60
7814;DHT22;3952;48.364;16.022;2023-04-03T16:17:41;5.60;94.50
7814;DHT22;3952;48.364;16.022;2023-04-03T16:20:12;5.60;94.40
7814;DHT22;3952;48.364;16.022;2023-04-03T16:22:40;5.50;94.30
7814;DHT22;3952;48.364;16.022;2023-04-03T16:25:09;5.50;93.60
7814;DHT22;3952;48.364;16.022;2023-04-03T16:27:37;5.50;93.90